sensor_id;sensor_type;location;lat;lon;timestamp;P1;durP1;ratioP1;P2;durP2;ratioP2
79706;SDS011;69200;53.612;-2.416;2023-07-31T00:01:11;3.72;;;1.00;;
79706;SDS011;69200;53.612;-2.416;2023-07-31T00:03:37;3.40;;;1.20;;
79706;SDS011;69200;53.612;-2.416;2023-07-31T00:06:02;5.57;;;1.35;;
79706;SDS011;69200;53.612;-2.416;2023-07-31T00:08:27;4.40;;;1.52;;
79706;SDS011;69200;53.612;-2.416;2023-07-31T00:10:53;5.25;;;1.42;;
79706;SDS011;69200;53.612;-2.416;2023-07-31T00:13:18;4.10;;;1.20;;
79706;SDS011;69200;53.612;-2.416;2023-07-31T00:15:44;4.32;;;1.33;;
79706;SDS011;69200;53.612;-2.416;2023-07-31T00:18:09;3.90;;;1.30;;
79706;SDS011;69200;53.612;-2.416;2023-07-31T00:20:35;3.92;;;1.27;;
79706;SDS011;69200;53.612;-2.416;2023-07-31T00:23:00;5.30;;;1.60;;
79706;SDS011;69200;53.612;-2.416;2023-07-31T00:25:25;3.40;;;1.30;;
79706;SDS011;69200;53.612;-2.416;2023-07-31T00:27:51;3.30;;;1.20;;
79706;SDS011;69200;53.612;-2.416;2023-07-31T00:30:16;5.28;;;1.60;;
79706;SDS011;69200;53.612;-2.416;2023-07-31T00:32:41;4.65;;;1.60;;
79706;SDS011;69200;53.612;-2.416;2023-07-31T00:35:07;4.38;;;1.42;;
79706;SDS011;69200;53.612;-2.416;2023-07-31T00:37:32;4.55;;;1.30;;
79706;SDS011;69200;53.612;-2.416;2023-07-31T00:39:58;4.10;;;1.75;;
79706;SDS011;69200;53.612;-2.416;2023-07-31T00:42:24;3.95;;;1.30;;
79706;SDS011;69200;53.612;-2.416;2023-07-31T00:44:49;3.08;;;1.20;;
79706;SDS011;69200;53.612;-2.416;2023-07-31T00:47:15;3.00;;;1.17;;
79706;SDS011;69200;53.612;-2.416;2023-07-31T00:49:40;4.55;;;1.73;;
79706;SDS011;69200;53.612;-2.416;2023-07-31T00:52:06;5.82;;;2.10;;
79706;SDS011;69200;53.612;-2.416;2023-07-31T00:54:32;5.03;;;1.88;;
79706;SDS011;69200;53.612;-2.416;2023-07-31T00:56:57;3.83;;;1.60;;
79706;SDS011;69200;53.612;-2.416;2023-07-31T00:59:23;5.43;;;1.98;;
79706;SDS011;69200;53.612;-2.416;2023-07-31T01:01:48;4.78;;;2.05;;
79706;SDS011;69200;53.612;-2.416;2023-07-31T01:04:14;4.32;;;1.70;;
79706;SDS011;69200;53.612;-2.416;2023-07-31T01:09:29;3.95;;;1.65;;
79706;SDS011;69200;53.612;-2.416;2023-07-31T01:12:01;6.22;;;2.13;;
79706;SDS011;69200;53.612;-2.416;2023-07-31T01:14:28;5.60;;;2.50;;
79706;SDS011;69200;53.612;-2.416;2023-07-31T01:16:54;7.32;;;1.80;;
79706;SDS011;69200;53.612;-2.416;2023-07-31T01:19:23;5.30;;;2.00;;
79706;SDS011;69200;53.612;-2.416;2023-07-31T01:22:08;6.57;;;3.00;;
79706;SDS011;69200;53.612;-2.416;2023-07-31T01:24:55;7.13;;;3.47;;
79706;SDS011;69200;53.612;-2.416;2023-07-31T01:27:24;7.63;;;3.50;;
79706;SDS011;69200;53.612;-2.416;2023-07-31T01:30:00;5.95;;;2.83;;
79706;SDS011;69200;53.612;-2.416;2023-07-31T01:32:36;6.75;;;3.20;;
79706;SDS011;69200;53.612;-2.416;2023-07-31T01:35:03;6.40;;;2.92;;
79706;SDS011;69200;53.612;-2.416;2023-07-31T01:37:29;4.60;;;2.00;;
79706;SDS011;69200;53.612;-2.416;2023-07-31T01:39:57;6.65;;;3.20;;
79706;SDS011;69200;53.612;-2.416;2023-07-31T01:42:22;5.40;;;2.53;;
79706;SDS011;69200;53.612;-2.416;2023-07-31T01:44:47;8.05;;;4.00;;
79706;SDS011;69200;53.612;-2.416;2023-07-31T01:47:13;5.65;;;2.58;;
79706;SDS011;69200;53.612;-2.416;2023-07-31T01:49:38;7.95;;;4.20;;
79706;SDS011;69200;53.612;-2.416;2023-07-31T01:52:04;7.60;;;3.85;;
79706;SDS011;69200;53.612;-2.416;2023-07-31T01:54:29;9.77;;;4.20;;
79706;SDS011;69200;53.612;-2.416;2023-07-31T01:56:55;6.57;;;2.80;;
79706;SDS011;69200;53.612;-2.416;2023-07-31T01:59:23;9.63;;;3.28;;
79706;SDS011;69200;53.612;-2.416;2023-07-31T02:01:48;7.05;;;2.90;;
79706;SDS011;69200;53.612;-2.416;2023-07-31T02:04:14;7.03;;;3.67;;
79706;SDS011;69200;53.612;-2.416;2023-07-31T02:06:39;8.10;;;4.22;;
79706;SDS011;69200;53.612;-2.416;2023-07-31T02:09:04;7.85;;;3.47;;
79706;SDS011;69200;53.612;-2.416;2023-07-31T02:11:30;6.13;;;3.28;;
79706;SDS011;69200;53.612;-2.416;2023-07-31T02:13:55;6.32;;;2.83;;
79706;SDS011;69200;53.612;-2.416;2023-07-31T02:16:21;6.80;;;3.60;;
79706;SDS011;69200;53.612;-2.416;2023-07-31T02:18:46;5.88;;;2.63;;
79706;SDS011;69200;53.612;-2.416;2023-07-31T02:21:11;5.68;;;2.72;;
79706;SDS011;69200;53.612;-2.416;2023-07-31T02:23:37;8.20;;;4.38;;
79706;SDS011;69200;53.612;-2.416;2023-07-31T02:26:02;6.65;;;3.25;;
79706;SDS011;69200;53.612;-2.416;2023-07-31T02:28:28;6.15;;;3.00;;
79706;SDS011;69200;53.612;-2.416;2023-07-31T02:30:54;6.45;;;2.83;;
79706;SDS011;69200;53.612;-2.416;2023-07-31T02:33:19;6.18;;;2.85;;
79706;SDS011;69200;53.612;-2.416;2023-07-31T02:35:44;5.60;;;3.10;;
79706;SDS011;69200;53.612;-2.416;2023-07-31T02:38:10;6.53;;;3.33;;
79706;SDS011;69200;53.612;-2.416;2023-07-31T02:40:38;6.65;;;3.40;;
79706;SDS011;69200;53.612;-2.416;2023-07-31T02:43:05;5.82;;;3.03;;
79706;SDS011;69200;53.612;-2.416;2023-07-31T02:45:30;5.93;;;3.00;;
79706;SDS011;69200;53.612;-2.416;2023-07-31T02:47:56;6.05;;;3.30;;
79706;SDS011;69200;53.612;-2.416;2023-07-31T02:50:21;5.38;;;2.63;;
79706;SDS011;69200;53.612;-2.416;2023-07-31T02:52:46;5.72;;;2.45;;
79706;SDS011;69200;53.612;-2.416;2023-07-31T02:55:12;5.63;;;2.78;;
79706;SDS011;69200;53.612;-2.416;2023-07-31T02:57:37;5.82;;;2.75;;
79706;SDS011;69200;53.612;-2.416;2023-07-31T03:00:03;5.35;;;2.50;;
79706;SDS011;69200;53.612;-2.416;2023-07-31T03:02:31;4.93;;;2.42;;
79706;SDS011;69200;53.612;-2.416;2023-07-31T03:04:56;5.07;;;2.30;;
79706;SDS011;69200;53.612;-2.416;2023-07-31T03:07:21;4.60;;;2.60;;
79706;SDS011;69200;53.612;-2.416;2023-07-31T03:09:47;5.38;;;2.10;;
79706;SDS011;69200;53.612;-2.416;2023-07-31T03:12:12;5.03;;;2.40;;
79706;SDS011;69200;53.612;-2.416;2023-07-31T03:14:38;4.97;;;2.15;;
79706;SDS011;69200;53.612;-2.416;2023-07-31T03:17:03;3.60;;;1.63;;
79706;SDS011;69200;53.612;-2.416;2023-07-31T03:19:30;3.85;;;1.60;;
79706;SDS011;69200;53.612;-2.416;2023-07-31T03:21:57;3.10;;;1.20;;
79706;SDS011;69200;53.612;-2.416;2023-07-31T03:24:22;4.20;;;1.55;;
79706;SDS011;69200;53.612;-2.416;2023-07-31T03:26:47;2.88;;;1.00;;
79706;SDS011;69200;53.612;-2.416;2023-07-31T03:29:13;2.78;;;1.00;;
79706;SDS011;69200;53.612;-2.416;2023-07-31T03:31:38;3.58;;;1.10;;
79706;SDS011;69200;53.612;-2.416;2023-07-31T03:34:03;3.30;;;1.00;;
79706;SDS011;69200;53.612;-2.416;2023-07-31T03:36:29;3.60;;;1.23;;
79706;SDS011;69200;53.612;-2.416;2023-07-31T03:38:54;3.58;;;1.15;;
79706;SDS011;69200;53.612;-2.416;2023-07-31T03:41:19;1.63;;;0.60;;
79706;SDS011;69200;53.612;-2.416;2023-07-31T03:43:46;2.40;;;0.90;;
79706;SDS011;69200;53.612;-2.416;2023-07-31T03:46:14;2.47;;;0.82;;
79706;SDS011;69200;53.612;-2.416;2023-07-31T03:48:40;1.45;;;0.35;;
79706;SDS011;69200;53.612;-2.416;2023-07-31T03:51:05;1.15;;;0.40;;
79706;SDS011;69200;53.612;-2.416;2023-07-31T03:53:30;1.27;;;0.50;;
79706;SDS011;69200;53.612;-2.416;2023-07-31T03:55:56;1.73;;;0.60;;
79706;SDS011;69200;53.612;-2.416;2023-07-31T03:58:21;2.45;;;0.80;;
79706;SDS011;69200;53.612;-2.416;2023-07-31T04:00:47;1.17;;;0.40;;
79706;SDS011;69200;53.612;-2.416;2023-07-31T04:03:12;1.30;;;0.50;;
79706;SDS011;69200;53.612;-2.416;2023-07-31T04:05:38;2.50;;;0.50;;
79706;SDS011;69200;53.612;-2.416;2023-07-31T04:08:03;2.38;;;0.60;;
79706;SDS011;69200;53.612;-2.416;2023-07-31T04:10:29;1.90;;;0.60;;
79706;SDS011;69200;53.612;-2.416;2023-07-31T04:12:56;2.95;;;1.05;;
79706;SDS011;69200;53.612;-2.416;2023-07-31T04:15:21;1.38;;;0.50;;
79706;SDS011;69200;53.612;-2.416;2023-07-31T04:17:46;1.85;;;0.60;;
79706;SDS011;69200;53.612;-2.416;2023-07-31T04:20:12;2.75;;;1.00;;
79706;SDS011;69200;53.612;-2.416;2023-07-31T04:22:37;3.33;;;0.65;;
79706;SDS011;69200;53.612;-2.416;2023-07-31T04:25:02;3.80;;;1.30;;
79706;SDS011;69200;53.612;-2.416;2023-07-31T04:27:28;3.03;;;1.20;;
79706;SDS011;69200;53.612;-2.416;2023-07-31T04:29:53;3.78;;;1.10;;
79706;SDS011;69200;53.612;-2.416;2023-07-31T04:32:19;3.72;;;1.30;;
79706;SDS011;69200;53.612;-2.416;2023-07-31T04:34:45;3.53;;;1.20;;
79706;SDS011;69200;53.612;-2.416;2023-07-31T04:37:11;2.85;;;1.20;;
79706;SDS011;69200;53.612;-2.416;2023-07-31T04:39:36;4.20;;;1.15;;
79706;SDS011;69200;53.612;-2.416;2023-07-31T04:42:01;6.80;;;1.30;;
79706;SDS011;69200;53.612;-2.416;2023-07-31T04:44:27;3.90;;;1.30;;
79706;SDS011;69200;53.612;-2.416;2023-07-31T04:46:52;3.80;;;1.08;;
79706;SDS011;69200;53.612;-2.416;2023-07-31T04:49:18;4.72;;;1.02;;
79706;SDS011;69200;53.612;-2.416;2023-07-31T04:51:44;3.88;;;1.30;;
79706;SDS011;69200;53.612;-2.416;2023-07-31T04:54:09;5.57;;;1.92;;
79706;SDS011;69200;53.612;-2.416;2023-07-31T04:56:34;3.85;;;1.08;;
79706;SDS011;69200;53.612;-2.416;2023-07-31T04:59:00;4.00;;;1.20;;
79706;SDS011;69200;53.612;-2.416;2023-07-31T05:01:25;3.55;;;1.17;;
79706;SDS011;69200;53.612;-2.416;2023-07-31T05:03:51;3.78;;;1.20;;
79706;SDS011;69200;53.612;-2.416;2023-07-31T05:06:16;3.28;;;1.23;;
79706;SDS011;69200;53.612;-2.416;2023-07-31T05:08:41;3.95;;;0.90;;
79706;SDS011;69200;53.612;-2.416;2023-07-31T05:11:07;2.38;;;0.60;;
79706;SDS011;69200;53.612;-2.416;2023-07-31T05:13:32;3.55;;;0.82;;
79706;SDS011;69200;53.612;-2.416;2023-07-31T05:15:57;2.67;;;0.80;;
79706;SDS011;69200;53.612;-2.416;2023-07-31T05:18:23;2.70;;;0.80;;
79706;SDS011;69200;53.612;-2.416;2023-07-31T05:20:48;2.53;;;0.60;;
79706;SDS011;69200;53.612;-2.416;2023-07-31T05:23:14;3.63;;;1.00;;
79706;SDS011;69200;53.612;-2.416;2023-07-31T05:25:39;2.97;;;0.90;;
79706;SDS011;69200;53.612;-2.416;2023-07-31T05:28:05;3.35;;;0.95;;
79706;SDS011;69200;53.612;-2.416;2023-07-31T05:30:30;3.10;;;1.08;;
79706;SDS011;69200;53.612;-2.416;2023-07-31T05:32:56;5.53;;;1.10;;
79706;SDS011;69200;53.612;-2.416;2023-07-31T05:35:21;3.08;;;0.90;;
79706;SDS011;69200;53.612;-2.416;2023-07-31T05:37:47;3.10;;;0.95;;
79706;SDS011;69200;53.612;-2.416;2023-07-31T05:40:12;4.40;;;1.30;;
79706;SDS011;69200;53.612;-2.416;2023-07-31T05:42:37;3.72;;;1.20;;
79706;SDS011;69200;53.612;-2.416;2023-07-31T05:45:04;2.80;;;1.00;;
79706;SDS011;69200;53.612;-2.416;2023-07-31T05:47:30;3.38;;;1.10;;
79706;SDS011;69200;53.612;-2.416;2023-07-31T05:49:56;3.15;;;0.90;;
79706;SDS011;69200;53.612;-2.416;2023-07-31T05:52:21;5.57;;;1.20;;
79706;SDS011;69200;53.612;-2.416;2023-07-31T05:54:46;3.85;;;1.10;;
79706;SDS011;69200;53.612;-2.416;2023-07-31T05:57:12;4.80;;;1.00;;
79706;SDS011;69200;53.612;-2.416;2023-07-31T05:59:37;8.13;;;1.50;;
79706;SDS011;69200;53.612;-2.416;2023-07-31T06:02:03;4.75;;;1.33;;
79706;SDS011;69200;53.612;-2.416;2023-07-31T06:04:28;3.67;;;1.30;;
79706;SDS011;69200;53.612;-2.416;2023-07-31T06:06:53;5.03;;;1.63;;
79706;SDS011;69200;53.612;-2.416;2023-07-31T06:09:19;5.47;;;1.45;;
79706;SDS011;69200;53.612;-2.416;2023-07-31T06:11:45;5.82;;;1.70;;
79706;SDS011;69200;53.612;-2.416;2023-07-31T06:14:11;5.78;;;1.50;;
79706;SDS011;69200;53.612;-2.416;2023-07-31T06:16:36;5.00;;;1.45;;
79706;SDS011;69200;53.612;-2.416;2023-07-31T06:19:02;4.53;;;1.38;;
79706;SDS011;69200;53.612;-2.416;2023-07-31T06:21:27;8.05;;;1.95;;
79706;SDS011;69200;53.612;-2.416;2023-07-31T06:23:53;7.07;;;1.85;;
79706;SDS011;69200;53.612;-2.416;2023-07-31T06:26:18;4.95;;;1.63;;
79706;SDS011;69200;53.612;-2.416;2023-07-31T06:28:43;5.07;;;1.42;;
79706;SDS011;69200;53.612;-2.416;2023-07-31T06:31:09;5.10;;;2.08;;
79706;SDS011;69200;53.612;-2.416;2023-07-31T06:33:34;6.85;;;1.70;;
79706;SDS011;69200;53.612;-2.416;2023-07-31T06:36:00;6.28;;;1.63;;
79706;SDS011;69200;53.612;-2.416;2023-07-31T06:38:26;5.00;;;1.55;;
79706;SDS011;69200;53.612;-2.416;2023-07-31T06:40:52;7.68;;;1.63;;
79706;SDS011;69200;53.612;-2.416;2023-07-31T06:43:17;9.93;;;1.90;;
79706;SDS011;69200;53.612;-2.416;2023-07-31T06:45:43;4.63;;;1.67;;
79706;SDS011;69200;53.612;-2.416;2023-07-31T06:48:09;7.57;;;1.92;;
79706;SDS011;69200;53.612;-2.416;2023-07-31T06:50:34;8.02;;;2.08;;
79706;SDS011;69200;53.612;-2.416;2023-07-31T06:52:59;6.78;;;1.77;;
79706;SDS011;69200;53.612;-2.416;2023-07-31T06:55:25;8.15;;;1.75;;
79706;SDS011;69200;53.612;-2.416;2023-07-31T06:57:53;6.88;;;2.03;;
79706;SDS011;69200;53.612;-2.416;2023-07-31T07:00:20;7.13;;;1.88;;
79706;SDS011;69200;53.612;-2.416;2023-07-31T07:02:47;4.82;;;1.50;;
79706;SDS011;69200;53.612;-2.416;2023-07-31T07:05:13;7.30;;;1.40;;
79706;SDS011;69200;53.612;-2.416;2023-07-31T07:07:40;8.52;;;1.65;;
79706;SDS011;69200;53.612;-2.416;2023-07-31T07:10:05;5.90;;;1.30;;
79706;SDS011;69200;53.612;-2.416;2023-07-31T07:12:32;6.15;;;1.52;;
79706;SDS011;69200;53.612;-2.416;2023-07-31T07:14:58;5.57;;;1.60;;
79706;SDS011;69200;53.612;-2.416;2023-07-31T07:17:24;5.60;;;1.33;;
79706;SDS011;69200;53.612;-2.416;2023-07-31T07:19:50;4.07;;;1.27;;
79706;SDS011;69200;53.612;-2.416;2023-07-31T07:22:15;5.53;;;1.25;;
79706;SDS011;69200;53.612;-2.416;2023-07-31T07:24:41;6.78;;;1.23;;
79706;SDS011;69200;53.612;-2.416;2023-07-31T07:27:07;6.00;;;1.30;;
79706;SDS011;69200;53.612;-2.416;2023-07-31T07:29:33;4.47;;;1.00;;
79706;SDS011;69200;53.612;-2.416;2023-07-31T07:31:59;4.85;;;1.20;;
79706;SDS011;69200;53.612;-2.416;2023-07-31T07:34:25;2.75;;;0.90;;
79706;SDS011;69200;53.612;-2.416;2023-07-31T07:36:51;3.13;;;0.98;;
79706;SDS011;69200;53.612;-2.416;2023-07-31T07:39:17;4.88;;;1.17;;
79706;SDS011;69200;53.612;-2.416;2023-07-31T07:41:42;5.47;;;1.20;;
79706;SDS011;69200;53.612;-2.416;2023-07-31T07:44:08;6.18;;;1.58;;
79706;SDS011;69200;53.612;-2.416;2023-07-31T07:46:33;3.90;;;1.13;;
79706;SDS011;69200;53.612;-2.416;2023-07-31T07:48:59;2.78;;;0.90;;
79706;SDS011;69200;53.612;-2.416;2023-07-31T07:51:24;3.60;;;1.10;;
79706;SDS011;69200;53.612;-2.416;2023-07-31T07:53:50;4.25;;;1.20;;
79706;SDS011;69200;53.612;-2.416;2023-07-31T07:56:15;18.75;;;1.60;;
79706;SDS011;69200;53.612;-2.416;2023-07-31T07:58:41;8.30;;;1.80;;
79706;SDS011;69200;53.612;-2.416;2023-07-31T08:01:06;5.10;;;1.40;;
79706;SDS011;69200;53.612;-2.416;2023-07-31T08:03:32;7.50;;;1.52;;
79706;SDS011;69200;53.612;-2.416;2023-07-31T08:05:58;7.45;;;1.80;;
79706;SDS011;69200;53.612;-2.416;2023-07-31T08:08:27;6.78;;;1.85;;
79706;SDS011;69200;53.612;-2.416;2023-07-31T08:10:53;5.03;;;1.23;;
79706;SDS011;69200;53.612;-2.416;2023-07-31T08:13:18;4.50;;;1.60;;
79706;SDS011;69200;53.612;-2.416;2023-07-31T08:15:44;7.22;;;1.60;;
79706;SDS011;69200;53.612;-2.416;2023-07-31T08:18:09;4.25;;;1.30;;
79706;SDS011;69200;53.612;-2.416;2023-07-31T08:20:36;4.60;;;1.45;;
79706;SDS011;69200;53.612;-2.416;2023-07-31T08:23:02;3.63;;;1.33;;
79706;SDS011;69200;53.612;-2.416;2023-07-31T08:25:27;4.88;;;1.58;;
79706;SDS011;69200;53.612;-2.416;2023-07-31T08:27:53;6.25;;;1.30;;
79706;SDS011;69200;53.612;-2.416;2023-07-31T08:30:19;4.47;;;1.52;;
79706;SDS011;69200;53.612;-2.416;2023-07-31T08:32:44;6.20;;;1.40;;
79706;SDS011;69200;53.612;-2.416;2023-07-31T08:35:10;7.78;;;1.60;;
79706;SDS011;69200;53.612;-2.416;2023-07-31T08:37:36;7.93;;;1.90;;
79706;SDS011;69200;53.612;-2.416;2023-07-31T08:40:03;8.05;;;1.58;;
79706;SDS011;69200;53.612;-2.416;2023-07-31T08:42:29;10.10;;;1.90;;
79706;SDS011;69200;53.612;-2.416;2023-07-31T08:44:55;4.43;;;1.63;;
79706;SDS011;69200;53.612;-2.416;2023-07-31T08:47:21;6.63;;;1.70;;
79706;SDS011;69200;53.612;-2.416;2023-07-31T08:49:48;4.78;;;1.42;;
79706;SDS011;69200;53.612;-2.416;2023-07-31T08:52:15;5.25;;;1.75;;
79706;SDS011;69200;53.612;-2.416;2023-07-31T08:54:40;8.38;;;2.17;;
79706;SDS011;69200;53.612;-2.416;2023-07-31T08:57:06;5.15;;;1.35;;
79706;SDS011;69200;53.612;-2.416;2023-07-31T08:59:33;6.82;;;1.98;;
79706;SDS011;69200;53.612;-2.416;2023-07-31T09:02:05;6.50;;;1.67;;
79706;SDS011;69200;53.612;-2.416;2023-07-31T09:04:32;5.47;;;1.60;;
79706;SDS011;69200;53.612;-2.416;2023-07-31T09:07:00;7.15;;;1.73;;
79706;SDS011;69200;53.612;-2.416;2023-07-31T09:09:28;5.40;;;1.80;;
79706;SDS011;69200;53.612;-2.416;2023-07-31T09:11:53;8.68;;;1.73;;
79706;SDS011;69200;53.612;-2.416;2023-07-31T09:14:20;5.28;;;1.83;;
79706;SDS011;69200;53.612;-2.416;2023-07-31T09:16:56;5.75;;;1.92;;
79706;SDS011;69200;53.612;-2.416;2023-07-31T09:19:32;4.20;;;1.40;;
79706;SDS011;69200;53.612;-2.416;2023-07-31T09:21:59;4.15;;;1.48;;
79706;SDS011;69200;53.612;-2.416;2023-07-31T09:24:26;6.90;;;1.60;;
79706;SDS011;69200;53.612;-2.416;2023-07-31T09:26:56;5.82;;;1.73;;
79706;SDS011;69200;53.612;-2.416;2023-07-31T09:29:22;7.63;;;1.73;;
79706;SDS011;69200;53.612;-2.416;2023-07-31T09:31:48;6.28;;;1.42;;
79706;SDS011;69200;53.612;-2.416;2023-07-31T09:34:13;4.07;;;1.55;;
79706;SDS011;69200;53.612;-2.416;2023-07-31T09:36:42;6.47;;;1.67;;
79706;SDS011;69200;53.612;-2.416;2023-07-31T09:39:12;7.47;;;1.83;;
79706;SDS011;69200;53.612;-2.416;2023-07-31T09:41:42;5.18;;;1.35;;
79706;SDS011;69200;53.612;-2.416;2023-07-31T09:44:09;5.45;;;1.60;;
79706;SDS011;69200;53.612;-2.416;2023-07-31T09:46:35;5.80;;;1.70;;
79706;SDS011;69200;53.612;-2.416;2023-07-31T09:49:05;5.40;;;1.60;;
79706;SDS011;69200;53.612;-2.416;2023-07-31T09:51:31;3.85;;;1.10;;
79706;SDS011;69200;53.612;-2.416;2023-07-31T09:53:56;4.85;;;1.30;;
79706;SDS011;69200;53.612;-2.416;2023-07-31T09:56:22;9.23;;;1.45;;
79706;SDS011;69200;53.612;-2.416;2023-07-31T09:58:48;4.22;;;1.30;;
79706;SDS011;69200;53.612;-2.416;2023-07-31T10:01:15;4.25;;;1.33;;
79706;SDS011;69200;53.612;-2.416;2023-07-31T10:03:40;4.63;;;1.60;;
79706;SDS011;69200;53.612;-2.416;2023-07-31T10:06:09;4.07;;;1.40;;
79706;SDS011;69200;53.612;-2.416;2023-07-31T10:08:34;4.78;;;1.42;;
79706;SDS011;69200;53.612;-2.416;2023-07-31T10:11:02;4.20;;;1.65;;
79706;SDS011;69200;53.612;-2.416;2023-07-31T10:13:31;4.30;;;1.40;;
79706;SDS011;69200;53.612;-2.416;2023-07-31T10:15:58;4.45;;;1.40;;
79706;SDS011;69200;53.612;-2.416;2023-07-31T10:18:26;5.03;;;1.45;;
79706;SDS011;69200;53.612;-2.416;2023-07-31T10:20:52;4.07;;;1.20;;
79706;SDS011;69200;53.612;-2.416;2023-07-31T10:23:19;4.00;;;1.00;;
79706;SDS011;69200;53.612;-2.416;2023-07-31T10:25:45;4.80;;;0.95;;
79706;SDS011;69200;53.612;-2.416;2023-07-31T10:28:12;1.85;;;0.63;;
79706;SDS011;69200;53.612;-2.416;2023-07-31T10:30:38;3.15;;;0.90;;
79706;SDS011;69200;53.612;-2.416;2023-07-31T10:33:04;5.63;;;1.10;;
79706;SDS011;69200;53.612;-2.416;2023-07-31T10:35:30;3.67;;;0.98;;
79706;SDS011;69200;53.612;-2.416;2023-07-31T10:37:56;3.05;;;1.00;;
79706;SDS011;69200;53.612;-2.416;2023-07-31T10:40:36;3.95;;;1.02;;
79706;SDS011;69200;53.612;-2.416;2023-07-31T10:43:02;6.80;;;1.00;;
79706;SDS011;69200;53.612;-2.416;2023-07-31T10:45:32;3.38;;;0.95;;
79706;SDS011;69200;53.612;-2.416;2023-07-31T10:48:05;3.13;;;1.00;;
79706;SDS011;69200;53.612;-2.416;2023-07-31T10:50:38;3.25;;;1.00;;
79706;SDS011;69200;53.612;-2.416;2023-07-31T10:53:15;3.55;;;0.90;;
79706;SDS011;69200;53.612;-2.416;2023-07-31T10:55:48;3.50;;;0.98;;
79706;SDS011;69200;53.612;-2.416;2023-07-31T10:58:16;3.80;;;0.82;;
79706;SDS011;69200;53.612;-2.416;2023-07-31T11:00:44;4.70;;;0.90;;
79706;SDS011;69200;53.612;-2.416;2023-07-31T11:03:12;3.83;;;1.17;;
79706;SDS011;69200;53.612;-2.416;2023-07-31T11:05:42;5.15;;;1.00;;
79706;SDS011;69200;53.612;-2.416;2023-07-31T11:10:45;5.25;;;1.17;;
79706;SDS011;69200;53.612;-2.416;2023-07-31T11:13:11;5.18;;;1.40;;
79706;SDS011;69200;53.612;-2.416;2023-07-31T11:15:37;4.80;;;1.30;;
79706;SDS011;69200;53.612;-2.416;2023-07-31T11:18:03;7.50;;;1.30;;
79706;SDS011;69200;53.612;-2.416;2023-07-31T11:20:30;3.55;;;1.20;;
79706;SDS011;69200;53.612;-2.416;2023-07-31T11:22:58;2.95;;;0.93;;
79706;SDS011;69200;53.612;-2.416;2023-07-31T11:25:24;3.70;;;1.17;;
79706;SDS011;69200;53.612;-2.416;2023-07-31T11:27:50;4.18;;;1.23;;
79706;SDS011;69200;53.612;-2.416;2023-07-31T11:30:18;4.05;;;1.25;;
79706;SDS011;69200;53.612;-2.416;2023-07-31T11:32:45;3.38;;;1.20;;
79706;SDS011;69200;53.612;-2.416;2023-07-31T11:35:13;4.88;;;1.27;;
79706;SDS011;69200;53.612;-2.416;2023-07-31T11:37:42;2.50;;;0.73;;
79706;SDS011;69200;53.612;-2.416;2023-07-31T11:40:08;4.55;;;1.10;;
79706;SDS011;69200;53.612;-2.416;2023-07-31T11:42:34;5.50;;;1.15;;
79706;SDS011;69200;53.612;-2.416;2023-07-31T11:45:06;4.07;;;0.95;;
79706;SDS011;69200;53.612;-2.416;2023-07-31T11:47:33;6.28;;;1.45;;
79706;SDS011;69200;53.612;-2.416;2023-07-31T11:50:05;3.88;;;1.05;;
79706;SDS011;69200;53.612;-2.416;2023-07-31T11:52:39;4.30;;;0.98;;
79706;SDS011;69200;53.612;-2.416;2023-07-31T11:55:07;4.35;;;1.20;;
79706;SDS011;69200;53.612;-2.416;2023-07-31T11:57:34;7.03;;;1.55;;
79706;SDS011;69200;53.612;-2.416;2023-07-31T12:00:02;4.70;;;1.20;;
79706;SDS011;69200;53.612;-2.416;2023-07-31T12:02:28;4.15;;;1.17;;
79706;SDS011;69200;53.612;-2.416;2023-07-31T12:04:54;5.50;;;1.45;;
79706;SDS011;69200;53.612;-2.416;2023-07-31T12:07:19;5.13;;;1.48;;
79706;SDS011;69200;53.612;-2.416;2023-07-31T12:09:52;4.07;;;1.10;;
79706;SDS011;69200;53.612;-2.416;2023-07-31T12:12:22;5.82;;;1.70;;
79706;SDS011;69200;53.612;-2.416;2023-07-31T12:14:48;7.00;;;1.50;;
79706;SDS011;69200;53.612;-2.416;2023-07-31T12:17:15;5.60;;;1.60;;
79706;SDS011;69200;53.612;-2.416;2023-07-31T12:19:41;5.35;;;1.70;;
79706;SDS011;69200;53.612;-2.416;2023-07-31T12:22:13;5.22;;;1.40;;
79706;SDS011;69200;53.612;-2.416;2023-07-31T12:24:40;8.40;;;1.70;;
79706;SDS011;69200;53.612;-2.416;2023-07-31T12:27:12;5.80;;;1.35;;
79706;SDS011;69200;53.612;-2.416;2023-07-31T12:29:41;5.13;;;1.50;;
79706;SDS011;69200;53.612;-2.416;2023-07-31T12:32:22;6.63;;;1.42;;
79706;SDS011;69200;53.612;-2.416;2023-07-31T12:34:50;4.13;;;1.23;;
79706;SDS011;69200;53.612;-2.416;2023-07-31T12:37:15;6.07;;;1.67;;
79706;SDS011;69200;53.612;-2.416;2023-07-31T12:39:41;6.00;;;1.25;;
79706;SDS011;69200;53.612;-2.416;2023-07-31T12:42:06;4.53;;;1.10;;
79706;SDS011;69200;53.612;-2.416;2023-07-31T12:44:32;5.20;;;1.45;;
79706;SDS011;69200;53.612;-2.416;2023-07-31T12:46:57;5.22;;;1.20;;
79706;SDS011;69200;53.612;-2.416;2023-07-31T12:49:23;5.65;;;1.50;;
79706;SDS011;69200;53.612;-2.416;2023-07-31T12:51:49;4.40;;;1.55;;
79706;SDS011;69200;53.612;-2.416;2023-07-31T12:54:14;5.38;;;1.48;;
79706;SDS011;69200;53.612;-2.416;2023-07-31T12:56:40;4.88;;;1.30;;
79706;SDS011;69200;53.612;-2.416;2023-07-31T12:59:05;5.45;;;1.48;;
79706;SDS011;69200;53.612;-2.416;2023-07-31T13:01:31;5.00;;;1.55;;
79706;SDS011;69200;53.612;-2.416;2023-07-31T13:03:56;7.47;;;1.60;;
79706;SDS011;69200;53.612;-2.416;2023-07-31T13:06:22;6.40;;;1.90;;
79706;SDS011;69200;53.612;-2.416;2023-07-31T13:08:47;4.40;;;1.38;;
79706;SDS011;69200;53.612;-2.416;2023-07-31T13:11:13;4.82;;;1.70;;
79706;SDS011;69200;53.612;-2.416;2023-07-31T13:13:38;7.22;;;1.50;;
79706;SDS011;69200;53.612;-2.416;2023-07-31T13:16:03;6.50;;;1.48;;
79706;SDS011;69200;53.612;-2.416;2023-07-31T13:18:29;8.27;;;1.80;;
79706;SDS011;69200;53.612;-2.416;2023-07-31T13:20:54;6.07;;;1.70;;
79706;SDS011;69200;53.612;-2.416;2023-07-31T13:23:20;6.50;;;1.45;;
79706;SDS011;69200;53.612;-2.416;2023-07-31T13:25:45;4.95;;;1.42;;
79706;SDS011;69200;53.612;-2.416;2023-07-31T13:28:10;4.72;;;1.30;;
79706;SDS011;69200;53.612;-2.416;2023-07-31T13:30:36;4.72;;;1.50;;
79706;SDS011;69200;53.612;-2.416;2023-07-31T13:33:01;6.47;;;1.25;;
79706;SDS011;69200;53.612;-2.416;2023-07-31T13:35:27;5.15;;;1.42;;
79706;SDS011;69200;53.612;-2.416;2023-07-31T13:37:52;7.20;;;1.70;;
79706;SDS011;69200;53.612;-2.416;2023-07-31T13:40:18;5.57;;;1.55;;
79706;SDS011;69200;53.612;-2.416;2023-07-31T13:42:43;6.18;;;1.98;;
79706;SDS011;69200;53.612;-2.416;2023-07-31T13:45:09;7.82;;;1.73;;
79706;SDS011;69200;53.612;-2.416;2023-07-31T13:47:34;5.65;;;1.85;;
79706;SDS011;69200;53.612;-2.416;2023-07-31T13:50:02;5.47;;;1.55;;
79706;SDS011;69200;53.612;-2.416;2023-07-31T13:52:27;7.57;;;1.40;;
79706;SDS011;69200;53.612;-2.416;2023-07-31T13:54:52;4.57;;;1.05;;
79706;SDS011;69200;53.612;-2.416;2023-07-31T13:57:18;3.95;;;1.38;;
79706;SDS011;69200;53.612;-2.416;2023-07-31T13:59:43;4.63;;;1.10;;
79706;SDS011;69200;53.612;-2.416;2023-07-31T14:02:09;4.30;;;1.00;;
79706;SDS011;69200;53.612;-2.416;2023-07-31T14:04:34;4.43;;;1.10;;
79706;SDS011;69200;53.612;-2.416;2023-07-31T14:06:59;3.22;;;0.80;;
79706;SDS011;69200;53.612;-2.416;2023-07-31T14:09:25;4.10;;;1.08;;
79706;SDS011;69200;53.612;-2.416;2023-07-31T14:11:51;5.28;;;1.10;;
79706;SDS011;69200;53.612;-2.416;2023-07-31T14:14:17;4.15;;;1.00;;
79706;SDS011;69200;53.612;-2.416;2023-07-31T14:16:43;2.83;;;0.70;;
79706;SDS011;69200;53.612;-2.416;2023-07-31T14:19:08;3.97;;;1.20;;
79706;SDS011;69200;53.612;-2.416;2023-07-31T14:21:34;9.05;;;1.50;;
79706;SDS011;69200;53.612;-2.416;2023-07-31T14:23:59;8.32;;;1.38;;
79706;SDS011;69200;53.612;-2.416;2023-07-31T14:26:25;5.63;;;1.15;;
79706;SDS011;69200;53.612;-2.416;2023-07-31T14:28:50;8.65;;;1.40;;
79706;SDS011;69200;53.612;-2.416;2023-07-31T14:31:15;5.60;;;1.00;;
79706;SDS011;69200;53.612;-2.416;2023-07-31T14:33:41;7.32;;;1.15;;